Time;durP1;ratioP1;P1;durP2;ratioP2;P2;SDS_P1;SDS_P2;PMS_P1;PMS_P2;Temp;Humidity;BMP_temperature;BMP_pressure;BME280_temperature;BME280_humidity;BME280_pressure;Samples;Min_cycle;Max_cycle;Signal;HPM_P1;HPM_P2
2022/01/13 00:02:07;;;;;;;22.55;11.95;;;;;;;;;;5011794;28;20026;-72
2022/01/13 00:04:32;;;;;;;22.95;11.70;;;;;;;;;;5010822;28;20033;-72
2022/01/13 00:06:57;;;;;;;23.05;12.43;;;;;;;;;;5011439;28;20030;-71
2022/01/13 00:09:23;;;;;;;20.55;11.68;;;;;;;;;;5010164;28;20041;-72
2022/01/13 00:11:49;;;;;;;24.25;12.10;;;;;;;;;;5011297;28;20034;-72
2022/01/13 00:19:34;;;;;;;22.33;11.43;;;;;;;;;;5013079;28;20034;-72
2022/01/13 00:22:16;;;;;;;20.08;11.45;;;;;;;;;;5010564;28;20478;-72
2022/01/13 00:24:45;;;;;;;20.90;10.88;;;;;;;;;;5011258;28;20068;-72
2022/01/13 00:27:13;;;;;;;20.88;12.40;;;;;;;;;;5011433;28;20543;-71
2022/01/13 00:29:42;;;;;;;21.35;11.18;;;;;;;;;;5011524;28;20491;-72
2022/01/13 00:32:09;;;;;;;18.85;10.38;;;;;;;;;;5011265;28;20034;-72
2022/01/13 00:34:34;;;;;;;18.20;11.10;;;;;;;;;;5010750;28;20045;-72
2022/01/13 00:36:59;;;;;;;21.05;11.68;;;;;;;;;;5010931;28;20041;-72
2022/01/13 00:39:25;;;;;;;20.05;11.75;;;;;;;;;;5011169;28;20072;-72
2022/01/13 00:41:51;;;;;;;18.63;10.90;;;;;;;;;;5010777;28;20033;-72
2022/01/13 00:44:20;;;;;;;20.67;10.95;;;;;;;;;;5010729;28;20057;-72
2022/01/13 00:46:55;;;;;;;19.40;10.85;;;;;;;;;;5010738;28;20033;-72
2022/01/13 00:49:21;;;;;;;20.23;10.35;;;;;;;;;;5010391;28;20041;-72
2022/01/13 00:51:46;;;;;;;21.45;11.35;;;;;;;;;;5010824;28;20392;-72
2022/01/13 00:54:12;;;;;;;19.65;11.50;;;;;;;;;;5010417;28;20029;-72
2022/01/13 00:56:38;;;;;;;21.73;11.88;;;;;;;;;;5011054;28;20045;-72
2022/01/13 00:59:07;;;;;;;19.65;11.45;;;;;;;;;;5010869;28;20030;-72
2022/01/13 01:01:39;;;;;;;20.23;11.63;;;;;;;;;;5010076;28;20116;-72
2022/01/13 01:04:05;;;;;;;22.30;11.80;;;;;;;;;;5009519;28;20095;-72
2022/01/13 01:06:32;;;;;;;21.77;11.68;;;;;;;;;;5004210;28;20108;-72
2022/01/13 01:08:58;;;;;;;21.02;10.70;;;;;;;;;;5011037;28;20041;-72
2022/01/13 01:11:27;;;;;;;20.90;11.35;;;;;;;;;;5010202;28;20037;-72
2022/01/13 01:13:54;;;;;;;19.17;10.82;;;;;;;;;;5010326;28;20446;-72
2022/01/13 01:16:21;;;;;;;20.52;10.95;;;;;;;;;;5010801;28;20037;-72
2022/01/13 01:21:36;;;;;;;21.15;11.23;;;;;;;;;;5009845;28;20057;-72
2022/01/13 01:27:05;;;;;;;19.77;10.95;;;;;;;;;;5010552;28;20026;-73
2022/01/13 01:29:35;;;;;;;21.17;11.48;;;;;;;;;;5010134;28;20125;-72
2022/01/13 01:32:04;;;;;;;;;;;;;;;;;;5010628;28;20299;-72
2022/01/13 01:37:17;;;;;;;19.77;11.07;;;;;;;;;;5009874;28;20181;-72
2022/01/13 01:39:44;;;;;;;19.05;11.18;;;;;;;;;;5009477;28;20125;-72
2022/01/13 01:42:09;;;;;;;19.13;10.63;;;;;;;;;;5009516;28;20045;-72
2022/01/13 01:44:40;;;;;;;19.48;11.18;;;;;;;;;;5009843;28;20033;-72
2022/01/13 01:47:08;;;;;;;19.02;10.63;;;;;;;;;;5010163;28;20022;-72
2022/01/13 01:49:38;;;;;;;20.52;11.73;;;;;;;;;;5009611;28;20032;-72
2022/01/13 01:52:05;;;;;;;20.55;11.75;;;;;;;;;;5010204;28;20120;-72
2022/01/13 01:54:30;;;;;;;18.88;10.88;;;;;;;;;;5009602;28;20030;-72
2022/01/13 01:56:57;;;;;;;17.20;10.57;;;;;;;;;;5009900;28;20109;-71
2022/01/13 01:59:28;;;;;;;20.55;11.40;;;;;;;;;;5009615;28;20533;-72
2022/01/13 02:01:54;;;;;;;16.90;10.38;;;;;;;;;;5009366;28;20025;-72
2022/01/13 02:04:20;;;;;;;16.40;9.38;;;;;;;;;;5009340;28;20040;-72
2022/01/13 02:06:46;;;;;;;17.48;9.48;;;;;;;;;;5009210;28;20091;-72
2022/01/13 02:09:14;;;;;;;14.88;8.55;;;;;;;;;;5009916;28;20038;-71
2022/01/13 02:11:43;;;;;;;12.70;7.35;;;;;;;;;;5010278;28;20025;-72
2022/01/13 02:14:31;;;;;;;13.60;7.63;;;;;;;;;;5048718;22;20052;-71
2022/01/13 02:17:10;;;;;;;12.57;7.03;;;;;;;;;;5028979;28;20044;-70
2022/01/13 02:19:44;;;;;;;14.55;7.78;;;;;;;;;;5029511;28;20033;-71
2022/01/13 02:22:09;;;;;;;;;;;;;;;;;;5029872;28;20124;-71
2022/01/13 02:24:35;;;;;;;12.77;7.07;;;;;;;;;;5029119;28;20008;-71
2022/01/13 02:27:01;;;;;;;12.63;7.07;;;;;;;;;;5029007;28;20095;-71
2022/01/13 02:29:27;;;;;;;15.02;7.65;;;;;;;;;;5029211;28;20096;-73
2022/01/13 02:31:52;;;;;;;13.93;7.80;;;;;;;;;;5027936;28;20108;-73
2022/01/13 02:34:18;;;;;;;11.68;7.43;;;;;;;;;;5023416;28;20066;-73
2022/01/13 02:36:45;;;;;;;10.65;6.88;;;;;;;;;;5013380;28;20057;-73
2022/01/13 02:39:10;;;;;;;13.50;8.00;;;;;;;;;;5029328;28;20025;-73
2022/01/13 02:41:36;;;;;;;16.48;9.00;;;;;;;;;;5028778;28;20046;-73
2022/01/13 02:44:02;;;;;;;14.25;8.18;;;;;;;;;;5028894;28;20116;-74
2022/01/13 02:49:08;;;;;;;13.38;8.07;;;;;;;;;;5022183;28;20026;-74
2022/01/13 02:51:34;;;;;;;12.57;7.93;;;;;;;;;;5018337;28;20026;-73
2022/01/13 02:53:59;;;;;;;13.68;7.85;;;;;;;;;;5028821;28;20204;-73
2022/01/13 02:56:26;;;;;;;12.50;7.63;;;;;;;;;;5029595;28;20033;-73
2022/01/13 02:58:51;;;;;;;12.45;7.28;;;;;;;;;;5028671;28;20044;-74
2022/01/13 03:01:17;;;;;;;14.88;8.27;;;;;;;;;;5013713;28;20518;-73
2022/01/13 03:03:44;;;;;;;15.60;8.00;;;;;;;;;;5028705;28;20052;-73
2022/01/13 03:06:14;;;;;;;13.02;7.53;;;;;;;;;;5029171;28;20514;-73
2022/01/13 03:08:46;;;;;;;15.20;7.95;;;;;;;;;;5028740;28;20029;-72
2022/01/13 03:11:11;;;;;;;14.88;7.80;;;;;;;;;;5027862;28;20025;-73
2022/01/13 03:13:37;;;;;;;13.07;8.23;;;;;;;;;;5028581;28;20172;-73
2022/01/13 03:16:13;;;;;;;17.55;7.80;;;;;;;;;;5027781;28;20511;-73
2022/01/13 03:18:38;;;;;;;14.80;7.63;;;;;;;;;;5026376;28;20124;-73
2022/01/13 03:21:06;;;;;;;13.80;7.65;;;;;;;;;;5029065;28;20451;-73
2022/01/13 03:23:33;;;;;;;15.18;7.88;;;;;;;;;;5028560;28;20070;-73
2022/01/13 03:25:58;;;;;;;16.85;8.63;;;;;;;;;;5028678;28;20136;-73
2022/01/13 03:28:31;;;;;;;14.25;8.23;;;;;;;;;;5028649;28;20109;-73
2022/01/13 03:31:02;;;;;;;13.80;8.52;;;;;;;;;;5024329;28;20106;-73
2022/01/13 03:33:28;;;;;;;14.30;7.65;;;;;;;;;;5025679;28;20021;-73
2022/01/13 03:35:54;;;;;;;17.58;9.27;;;;;;;;;;5022423;28;20033;-73
2022/01/13 03:38:19;;;;;;;14.48;8.57;;;;;;;;;;5028178;28;20033;-73
2022/01/13 03:40:44;;;;;;;17.70;9.25;;;;;;;;;;5028659;28;20047;-73
2022/01/13 03:43:11;;;;;;;15.68;8.55;;;;;;;;;;5012017;28;20042;-73
2022/01/13 03:45:36;;;;;;;13.88;8.63;;;;;;;;;;5030181;28;20547;-73
2022/01/13 03:48:02;;;;;;;17.80;9.13;;;;;;;;;;5031184;28;20118;-73
2022/01/13 03:50:28;;;;;;;18.23;9.70;;;;;;;;;;5031998;28;20272;-74
2022/01/13 03:53:02;;;;;;;17.42;9.35;;;;;;;;;;5031777;28;20029;-73
2022/01/13 03:55:38;;;;;;;14.30;8.35;;;;;;;;;;5031042;28;20037;-73
2022/01/13 03:58:31;;;;;;;16.08;7.88;;;;;;;;;;5031748;28;20571;-73
2022/01/13 04:01:34;;;;;;;14.25;8.10;;;;;;;;;;5030966;28;20040;-73
2022/01/13 04:03:59;;;;;;;15.27;8.73;;;;;;;;;;5031629;28;20026;-73
2022/01/13 04:06:33;;;;;;;15.57;8.10;;;;;;;;;;5023843;28;20075;-73
2022/01/13 04:08:59;;;;;;;17.17;8.02;;;;;;;;;;5031019;28;20072;-73
2022/01/13 04:11:32;;;;;;;14.25;7.80;;;;;;;;;;5031701;28;20056;-73
2022/01/13 04:14:04;;;;;;;17.10;8.80;;;;;;;;;;5031027;28;20025;-72
2022/01/13 04:16:36;;;;;;;16.75;8.57;;;;;;;;;;5031527;28;20025;-73
2022/01/13 04:19:05;;;;;;;15.73;8.13;;;;;;;;;;5015049;28;20040;-73
2022/01/13 04:21:36;;;;;;;15.75;8.25;;;;;;;;;;5031972;28;20025;-72
2022/01/13 04:24:10;;;;;;;16.42;9.13;;;;;;;;;;5029591;28;20414;-73
2022/01/13 04:26:36;;;;;;;18.00;9.25;;;;;;;;;;5030966;28;20061;-73
2022/01/13 04:31:37;;;;;;;16.30;8.57;;;;;;;;;;5031097;28;20511;-72
2022/01/13 04:34:03;;;;;;;13.27;7.63;;;;;;;;;;5028685;28;20037;-73
2022/01/13 04:36:28;;;;;;;13.45;8.50;;;;;;;;;;5016894;28;20033;-73
2022/01/13 04:38:54;;;;;;;14.68;8.48;;;;;;;;;;5030987;28;20036;-73
2022/01/13 04:41:30;;;;;;;18.02;8.77;;;;;;;;;;5030911;28;20482;-73
2022/01/13 04:43:56;;;;;;;14.40;8.45;;;;;;;;;;5030940;28;20049;-73
2022/01/13 04:46:22;;;;;;;14.68;9.27;;;;;;;;;;5030875;28;20037;-73
2022/01/13 04:48:47;;;;;;;18.73;9.98;;;;;;;;;;5029679;28;20131;-73
2022/01/13 04:51:12;;;;;;;15.60;9.38;;;;;;;;;;5030457;28;20123;-72
2022/01/13 04:53:38;;;;;;;15.38;8.93;;;;;;;;;;5030815;28;20025;-73
2022/01/13 04:56:10;;;;;;;14.10;8.35;;;;;;;;;;5029663;28;20037;-72
2022/01/13 04:58:35;;;;;;;16.20;8.40;;;;;;;;;;5030277;28;20048;-73
2022/01/13 05:01:00;;;;;;;14.07;8.13;;;;;;;;;;5030902;28;20534;-73
2022/01/13 05:03:26;;;;;;;14.95;8.73;;;;;;;;;;5029940;28;20124;-73
2022/01/13 05:05:51;;;;;;;16.40;8.48;;;;;;;;;;5026452;28;20092;-73
2022/01/13 05:08:17;;;;;;;14.85;8.82;;;;;;;;;;5010922;28;20479;-72
2022/01/13 05:10:42;;;;;;;16.42;8.45;;;;;;;;;;5029307;28;20128;-73
2022/01/13 05:13:10;;;;;;;15.02;8.00;;;;;;;;;;5029140;28;20029;-73
2022/01/13 05:15:37;;;;;;;20.33;12.65;;;;;;;;;;5030143;28;20040;-73
2022/01/13 05:20:40;;;;;;;15.80;8.93;;;;;;;;;;5029744;28;20419;-73
2022/01/13 05:23:08;;;;;;;15.27;8.45;;;;;;;;;;5029919;28;20033;-73
2022/01/13 05:25:33;;;;;;;17.70;9.60;;;;;;;;;;5029649;28;20211;-73
2022/01/13 05:27:59;;;;;;;15.85;9.35;;;;;;;;;;5030052;28;20101;-73
2022/01/13 05:30:24;;;;;;;15.52;8.00;;;;;;;;;;5029102;28;20027;-73
2022/01/13 05:32:50;;;;;;;18.45;8.85;;;;;;;;;;5029928;28;20033;-73
2022/01/13 05:35:15;;;;;;;18.02;9.15;;;;;;;;;;5029269;28;20083;-72
2022/01/13 05:37:42;;;;;;;17.45;9.20;;;;;;;;;;5029872;28;20530;-73
2022/01/13 05:40:09;;;;;;;15.95;10.30;;;;;;;;;;5029585;28;20391;-73
2022/01/13 05:42:34;;;;;;;15.50;9.45;;;;;;;;;;5029863;28;20112;-73
2022/01/13 05:45:01;;;;;;;16.52;9.50;;;;;;;;;;5029465;28;20440;-73
2022/01/13 05:47:26;;;;;;;18.38;9.75;;;;;;;;;;5028855;28;20068;-73
2022/01/13 05:49:52;;;;;;;18.33;10.27;;;;;;;;;;5028827;28;20029;-73
2022/01/13 05:52:17;;;;;;;17.80;9.32;;;;;;;;;;5029815;28;20057;-73
2022/01/13 05:54:42;;;;;;;19.95;10.02;;;;;;;;;;5029675;28;20139;-73
2022/01/13 05:57:08;;;;;;;19.35;10.02;;;;;;;;;;5029655;28;20037;-73
2022/01/13 05:59:35;;;;;;;16.60;9.75;;;;;;;;;;5029337;28;20026;-72
2022/01/13 06:02:00;;;;;;;16.88;9.68;;;;;;;;;;5028692;28;20100;-73
2022/01/13 06:04:25;;;;;;;16.23;9.52;;;;;;;;;;5027985;28;20084;-72
2022/01/13 06:06:51;;;;;;;16.50;9.65;;;;;;;;;;5023345;28;20029;-73
2022/01/13 06:09:16;;;;;;;19.23;10.65;;;;;;;;;;5029331;28;20547;-73
2022/01/13 06:11:51;;;;;;;18.80;10.35;;;;;;;;;;5029000;28;20088;-73
2022/01/13 06:14:17;;;;;;;21.55;14.38;;;;;;;;;;5028846;28;20520;-73
2022/01/13 06:16:42;;;;;;;22.00;13.43;;;;;;;;;;5029549;28;20175;-73
2022/01/13 06:19:07;;;;;;;21.25;12.05;;;;;;;;;;5029290;28;20037;-73
2022/01/13 06:21:33;;;;;;;20.48;11.48;;;;;;;;;;5029364;28;20029;-73
2022/01/13 06:23:58;;;;;;;20.67;12.48;;;;;;;;;;5017983;28;20487;-73
2022/01/13 06:26:23;;;;;;;23.30;12.82;;;;;;;;;;5029107;28;20048;-73
2022/01/13 06:28:49;;;;;;;18.83;11.10;;;;;;;;;;5028879;28;20025;-72
2022/01/13 06:31:14;;;;;;;22.40;13.32;;;;;;;;;;5029065;28;20029;-73
2022/01/13 06:33:39;;;;;;;22.27;11.00;;;;;;;;;;5029068;28;20071;-73
2022/01/13 06:36:05;;;;;;;23.52;12.27;;;;;;;;;;5028548;28;20559;-73
2022/01/13 06:38:31;;;;;;;21.27;11.93;;;;;;;;;;5028678;28;20042;-72
2022/01/13 06:40:57;;;;;;;19.77;10.20;;;;;;;;;;5028992;28;20026;-73
2022/01/13 06:43:22;;;;;;;16.90;9.77;;;;;;;;;;5028508;28;20028;-73
2022/01/13 06:45:47;;;;;;;19.83;10.10;;;;;;;;;;5028443;28;20030;-73
2022/01/13 06:48:13;;;;;;;17.13;9.05;;;;;;;;;;5029377;28;20048;-73
2022/01/13 06:50:38;;;;;;;17.20;8.88;;;;;;;;;;5022476;28;20034;-73
2022/01/13 06:53:04;;;;;;;16.65;8.77;;;;;;;;;;5022138;28;20083;-73
2022/01/13 06:55:29;;;;;;;14.82;8.75;;;;;;;;;;5028675;28;20033;-73
2022/01/13 06:57:54;;;;;;;16.75;8.70;;;;;;;;;;5028954;28;20037;-73
2022/01/13 07:00:21;;;;;;;20.67;9.88;;;;;;;;;;5027996;28;20025;-73
2022/01/13 07:02:47;;;;;;;17.25;8.98;;;;;;;;;;5009628;28;20048;-73
2022/01/13 07:05:12;;;;;;;20.08;9.15;;;;;;;;;;5027630;28;20277;-73
2022/01/13 07:07:42;;;;;;;15.32;8.73;;;;;;;;;;5026650;28;20021;-72
2022/01/13 07:10:10;;;;;;;19.25;10.57;;;;;;;;;;5021426;28;20029;-72
2022/01/13 07:12:36;;;;;;;17.08;10.13;;;;;;;;;;5022416;28;20026;-72
2022/01/13 07:15:02;;;;;;;22.17;10.68;;;;;;;;;;5024523;28;20593;-72
2022/01/13 07:17:27;;;;;;;18.17;9.85;;;;;;;;;;5025355;28;20076;-71
2022/01/13 07:19:53;;;;;;;17.77;9.77;;;;;;;;;;5028278;28;20025;-71
2022/01/13 07:22:19;;;;;;;16.58;9.05;;;;;;;;;;5022870;28;20457;-72
2022/01/13 07:24:44;;;;;;;18.45;10.30;;;;;;;;;;5021412;28;20021;-72
2022/01/13 07:27:10;;;;;;;20.70;11.30;;;;;;;;;;5020137;28;20029;-72
2022/01/13 07:29:35;;;;;;;19.23;10.10;;;;;;;;;;5029154;28;20060;-72
2022/01/13 07:32:01;;;;;;;21.33;10.80;;;;;;;;;;5028435;28;20036;-72
2022/01/13 07:34:26;;;;;;;18.00;10.30;;;;;;;;;;5007678;28;20041;-73
2022/01/13 07:36:51;;;;;;;18.10;10.93;;;;;;;;;;5028206;28;20072;-71
2022/01/13 07:39:17;;;;;;;19.60;10.57;;;;;;;;;;5028885;28;20033;-71
2022/01/13 07:41:42;;;;;;;14.70;9.07;;;;;;;;;;5028660;28;20083;-71
2022/01/13 07:44:08;;;;;;;19.50;9.60;;;;;;;;;;5028354;28;20375;-70
2022/01/13 07:46:34;;;;;;;16.50;9.45;;;;;;;;;;5028016;28;20022;-70
2022/01/13 07:48:59;;;;;;;15.23;9.13;;;;;;;;;;5028870;28;20486;-72
2022/01/13 07:51:25;;;;;;;16.55;9.65;;;;;;;;;;5027841;28;20225;-70
2022/01/13 07:53:50;;;;;;;20.10;9.77;;;;;;;;;;5028390;28;20053;-72
2022/01/13 07:56:15;;;;;;;18.98;9.32;;;;;;;;;;5027777;28;20021;-73
2022/01/13 07:58:41;;;;;;;17.35;9.63;;;;;;;;;;5023656;28;20061;-72
2022/01/13 08:01:07;;;;;;;16.73;9.48;;;;;;;;;;5019469;28;20052;-72
2022/01/13 08:03:33;;;;;;;17.63;8.48;;;;;;;;;;5022973;28;20049;-73
2022/01/13 08:06:00;;;;;;;13.60;8.13;;;;;;;;;;5027055;28;20033;-72
2022/01/13 08:08:25;;;;;;;20.40;9.55;;;;;;;;;;5029236;28;20027;-72
2022/01/13 08:10:51;;;;;;;16.13;8.10;;;;;;;;;;5027512;28;20486;-72
2022/01/13 08:13:16;;;;;;;15.95;8.30;;;;;;;;;;5037193;22;20096;-73
2022/01/13 08:15:41;;;;;;;15.07;8.25;;;;;;;;;;5007878;28;20439;-73
2022/01/13 08:20:50;;;;;;;15.75;8.55;;;;;;;;;;5007773;28;20557;-73
2022/01/13 08:23:16;;;;;;;17.00;8.75;;;;;;;;;;5005383;28;20217;-73
2022/01/13 08:25:41;;;;;;;15.15;8.43;;;;;;;;;;4992875;28;20258;-73
2022/01/13 08:28:07;;;;;;;18.40;9.18;;;;;;;;;;5001252;28;20033;-74
2022/01/13 08:30:33;;;;;;;14.77;8.85;;;;;;;;;;5000890;28;20038;-74
2022/01/13 08:32:58;;;;;;;14.38;8.20;;;;;;;;;;5001831;28;20027;-76
2022/01/13 08:38:48;;;;;;;17.35;9.45;;;;;;;;;;4999925;28;20052;-75
2022/01/13 08:41:13;;;;;;;16.15;9.02;;;;;;;;;;4998661;28;20146;-75
2022/01/13 08:43:38;;;;;;;20.88;10.32;;;;;;;;;;4994926;28;20068;-75
2022/01/13 08:46:04;;;;;;;18.55;9.82;;;;;;;;;;5015921;28;20033;-75
2022/01/13 08:48:30;;;;;;;17.60;10.15;;;;;;;;;;5007960;28;20105;-75
2022/01/13 08:50:56;;;;;;;16.30;9.57;;;;;;;;;;5006534;28;20511;-75
2022/01/13 08:53:22;;;;;;;17.65;10.05;;;;;;;;;;5005279;28;20033;-75
2022/01/13 08:55:48;;;;;;;19.90;10.48;;;;;;;;;;4998805;28;20033;-77
2022/01/13 08:58:13;;;;;;;19.63;9.00;;;;;;;;;;5007683;28;20026;-76
2022/01/13 09:00:40;;;;;;;16.70;8.73;;;;;;;;;;5007244;28;20022;-76
2022/01/13 09:03:07;;;;;;;18.58;10.75;;;;;;;;;;5007330;28;20037;-75
2022/01/13 09:05:33;;;;;;;16.73;9.85;;;;;;;;;;5005896;28;20467;-76
2022/01/13 09:07:59;;;;;;;19.13;10.27;;;;;;;;;;5006866;28;20033;-76
2022/01/13 09:10:25;;;;;;;16.17;8.80;;;;;;;;;;5001929;28;20034;-75
2022/01/13 09:12:50;;;;;;;18.45;9.70;;;;;;;;;;5001781;28;20022;-75
2022/01/13 09:15:18;;;;;;;15.05;8.52;;;;;;;;;;5004437;28;20018;-77
2022/01/13 09:17:46;;;;;;;19.55;10.15;;;;;;;;;;5006434;28;20029;-77
2022/01/13 09:20:14;;;;;;;19.58;10.70;;;;;;;;;;5007037;28;20029;-77
2022/01/13 09:22:39;;;;;;;22.23;11.32;;;;;;;;;;5006300;28;20049;-77
2022/01/13 09:25:07;;;;;;;19.40;10.57;;;;;;;;;;5006616;28;20061;-76
2022/01/13 09:27:33;;;;;;;18.25;10.32;;;;;;;;;;5006778;28;20443;-77
2022/01/13 09:29:59;;;;;;;16.17;7.95;;;;;;;;;;5006940;28;20587;-76
2022/01/13 09:32:24;;;;;;;19.30;8.90;;;;;;;;;;5005149;28;20037;-76
2022/01/13 09:34:50;;;;;;;19.83;9.40;;;;;;;;;;5005386;28;20026;-76
2022/01/13 09:37:16;;;;;;;16.45;8.55;;;;;;;;;;5004051;28;20030;-76
2022/01/13 09:39:42;;;;;;;17.90;8.80;;;;;;;;;;5005411;28;20018;-75
2022/01/13 09:42:09;;;;;;;16.63;8.60;;;;;;;;;;5004464;28;20076;-77
2022/01/13 09:44:34;;;;;;;19.27;9.10;;;;;;;;;;5006479;28;20061;-77
2022/01/13 09:47:00;;;;;;;19.02;8.55;;;;;;;;;;5006326;28;20109;-76
2022/01/13 09:49:25;;;;;;;18.10;8.85;;;;;;;;;;5004229;28;20092;-76
2022/01/13 09:51:51;;;;;;;16.83;8.70;;;;;;;;;;5005488;28;20115;-76
2022/01/13 09:54:16;;;;;;;14.82;8.07;;;;;;;;;;5017667;28;20033;-76
2022/01/13 09:56:42;;;;;;;16.33;8.07;;;;;;;;;;5012772;28;20061;-76
2022/01/13 09:59:08;;;;;;;17.95;9.25;;;;;;;;;;5001281;28;20444;-76
2022/01/13 10:01:33;;;;;;;23.20;12.15;;;;;;;;;;5013407;28;20471;-76
2022/01/13 10:03:58;;;;;;;26.73;12.88;;;;;;;;;;5016599;28;20021;-76
2022/01/13 10:06:24;;;;;;;23.20;12.30;;;;;;;;;;5014770;28;20128;-76
2022/01/13 10:08:53;;;;;;;30.60;14.23;;;;;;;;;;5004506;28;20116;-76
2022/01/13 10:11:34;;;;;;;22.40;11.93;;;;;;;;;;5009225;28;20087;-76
2022/01/13 10:16:55;;;;;;;22.58;11.68;;;;;;;;;;5000562;28;20030;-76
2022/01/13 10:19:44;;;;;;;17.05;9.27;;;;;;;;;;5005777;28;20087;-76
2022/01/13 10:22:14;;;;;;;15.70;8.38;;;;;;;;;;5006746;28;20029;-75
2022/01/13 10:24:44;;;;;;;18.13;9.23;;;;;;;;;;5003596;28;20030;-75
2022/01/13 10:27:14;;;;;;;19.30;10.65;;;;;;;;;;5005924;28;20084;-76
2022/01/13 10:29:47;;;;;;;17.05;9.65;;;;;;;;;;5006057;28;20026;-76
2022/01/13 10:32:33;;;;;;;15.88;8.18;;;;;;;;;;5003814;28;20532;-76
2022/01/13 10:34:59;;;;;;;13.70;7.68;;;;;;;;;;5003742;28;20042;-75
2022/01/13 10:37:30;;;;;;;14.98;7.78;;;;;;;;;;5005573;28;20026;-76
2022/01/13 10:40:17;;;;;;;16.75;8.43;;;;;;;;;;5006859;28;20041;-76
2022/01/13 10:45:35;;;;;;;23.38;11.40;;;;;;;;;;5005754;28;20069;-76
2022/01/13 10:48:22;;;;;;;21.63;10.55;;;;;;;;;;4999104;28;20100;-76
2022/01/13 10:51:01;;;;;;;16.85;8.82;;;;;;;;;;4999552;28;20037;-76
2022/01/13 10:53:29;;;;;;;19.95;11.05;;;;;;;;;;5006695;28;20026;-76
2022/01/13 10:56:01;;;;;;;18.95;9.60;;;;;;;;;;5009089;28;20033;-76
2022/01/13 10:58:30;;;;;;;19.27;9.85;;;;;;;;;;5010535;28;20490;-76
2022/01/13 11:00:57;;;;;;;17.58;9.65;;;;;;;;;;5005521;28;20116;-76
2022/01/13 11:03:24;;;;;;;15.50;8.55;;;;;;;;;;5009030;28;20056;-75
2022/01/13 11:05:59;;;;;;;19.63;10.30;;;;;;;;;;5010021;28;20061;-76
2022/01/13 11:08:45;;;;;;;18.83;10.05;;;;;;;;;;5010240;28;20049;-75
2022/01/13 11:11:21;;;;;;;19.67;10.75;;;;;;;;;;5012247;28;20049;-76
2022/01/13 11:13:52;;;;;;;19.15;10.15;;;;;;;;;;5013823;28;20085;-76
2022/01/13 11:16:18;;;;;;;19.80;9.70;;;;;;;;;;5010958;28;20032;-76
2022/01/13 11:18:44;;;;;;;23.90;13.20;;;;;;;;;;5009809;28;20066;-76
2022/01/13 11:21:09;;;;;;;24.88;12.13;;;;;;;;;;5009397;28;20072;-76
2022/01/13 11:23:37;;;;;;;23.98;12.13;;;;;;;;;;5009279;28;20033;-76
2022/01/13 11:26:04;;;;;;;22.88;11.60;;;;;;;;;;5009472;28;20117;-76
2022/01/13 11:28:29;;;;;;;25.83;12.80;;;;;;;;;;5009115;28;20030;-76
2022/01/13 11:30:55;;;;;;;25.80;13.23;;;;;;;;;;5009053;28;20052;-75
2022/01/13 11:33:22;;;;;;;27.85;14.30;;;;;;;;;;5009415;28;20021;-75
2022/01/13 11:35:55;;;;;;;25.90;13.60;;;;;;;;;;5008355;28;20045;-76
2022/01/13 11:38:21;;;;;;;24.10;12.38;;;;;;;;;;5008745;28;20096;-75
2022/01/13 11:40:50;;;;;;;29.42;15.43;;;;;;;;;;5009212;28;20076;-74
2022/01/13 11:43:28;;;;;;;25.77;13.93;;;;;;;;;;5009293;28;20368;-74
2022/01/13 11:45:54;;;;;;;24.23;12.23;;;;;;;;;;5010670;28;20109;-74
2022/01/13 11:48:23;;;;;;;21.67;11.20;;;;;;;;;;5008756;28;20105;-74
2022/01/13 11:50:55;;;;;;;20.80;10.45;;;;;;;;;;5008382;28;20026;-74
2022/01/13 11:53:30;;;;;;;20.60;10.75;;;;;;;;;;5003424;28;20041;-75
2022/01/13 11:56:04;;;;;;;20.95;10.90;;;;;;;;;;5007270;28;20446;-75
2022/01/13 11:58:38;;;;;;;22.77;11.23;;;;;;;;;;5001691;28;20038;-75
2022/01/13 12:01:32;;;;;;;21.42;10.98;;;;;;;;;;4989530;28;20121;-75
2022/01/13 12:04:06;;;;;;;24.08;11.00;;;;;;;;;;4987037;28;20036;-75
2022/01/13 12:06:38;;;;;;;22.98;11.65;;;;;;;;;;4991101;28;20129;-75
2022/01/13 12:09:05;;;;;;;23.38;11.63;;;;;;;;;;5008015;28;20093;-75
2022/01/13 12:11:40;;;;;;;21.17;10.35;;;;;;;;;;5008586;28;20080;-75
2022/01/13 12:14:32;;;;;;;19.65;9.82;;;;;;;;;;5008343;28;20042;-75
2022/01/13 12:17:08;;;;;;;21.20;11.65;;;;;;;;;;5009061;28;20550;-75
2022/01/13 12:19:41;;;;;;;18.20;9.98;;;;;;;;;;5008978;28;20096;-75
2022/01/13 12:22:11;;;;;;;;;;;;;;;;;;5014259;28;20417;-75
2022/01/13 12:24:47;;;;;;;18.27;9.10;;;;;;;;;;5000297;28;19971;-75
2022/01/13 12:27:13;;;;;;;20.75;10.75;;;;;;;;;;5012475;28;20116;-75
2022/01/13 12:29:50;;;;;;;19.58;9.85;;;;;;;;;;5012046;28;20026;-75
2022/01/13 12:32:33;;;;;;;21.88;10.27;;;;;;;;;;4989654;28;20901;-74
2022/01/13 12:34:59;;;;;;;21.38;10.80;;;;;;;;;;4989598;28;20460;-75
2022/01/13 12:37:26;;;;;;;25.40;11.32;;;;;;;;;;5005069;28;20041;-75
2022/01/13 12:39:58;;;;;;;21.42;11.05;;;;;;;;;;5000484;28;20088;-75
2022/01/13 12:42:38;;;;;;;21.73;10.27;;;;;;;;;;5001035;28;20021;-75
2022/01/13 12:45:39;;;;;;;19.65;10.40;;;;;;;;;;5001480;28;20033;-75
2022/01/13 12:48:04;;;;;;;21.17;10.68;;;;;;;;;;4997400;28;20712;-75
2022/01/13 12:50:39;;;;;;;20.88;10.60;;;;;;;;;;5001818;28;20055;-75
2022/01/13 12:53:12;;;;;;;23.02;10.73;;;;;;;;;;5008650;28;20029;-75
2022/01/13 12:55:40;;;;;;;24.67;12.20;;;;;;;;;;5007154;28;20045;-75
2022/01/13 12:58:07;;;;;;;24.40;11.63;;;;;;;;;;5008025;28;20040;-75
2022/01/13 13:00:33;;;;;;;22.58;11.02;;;;;;;;;;5008334;28;20034;-75
2022/01/13 13:03:06;;;;;;;20.48;11.02;;;;;;;;;;5023790;28;20408;-75
2022/01/13 13:05:38;;;;;;;22.25;10.90;;;;;;;;;;5027097;28;20486;-75
2022/01/13 13:08:04;;;;;;;21.27;10.40;;;;;;;;;;4992916;28;20038;-75
2022/01/13 13:10:29;;;;;;;20.83;10.55;;;;;;;;;;4995631;28;20026;-75
2022/01/13 13:12:55;;;;;;;18.95;9.75;;;;;;;;;;5004729;28;20042;-75
2022/01/13 13:17:51;;;;;;;20.95;11.38;;;;;;;;;;5007496;28;20069;-75
2022/01/13 13:20:29;;;;;;;18.63;10.02;;;;;;;;;;5018414;28;20396;-75
2022/01/13 13:23:00;;;;;;;18.08;10.27;;;;;;;;;;5026945;28;20116;-75
2022/01/13 13:25:51;;;;;;;18.58;10.27;;;;;;;;;;5026692;28;20076;-75
2022/01/13 13:28:40;;;;;;;18.88;10.45;;;;;;;;;;5025654;28;20419;-75
2022/01/13 13:31:08;;;;;;;24.80;10.30;;;;;;;;;;5008419;28;20108;-75
2022/01/13 13:33:37;;;;;;;20.15;10.45;;;;;;;;;;5007613;28;20030;-75
2022/01/13 13:36:12;;;;;;;19.88;11.00;;;;;;;;;;5011699;28;20022;-76
2022/01/13 13:38:58;;;;;;;22.92;10.60;;;;;;;;;;4999262;28;20033;-75
2022/01/13 13:41:29;;;;;;;20.70;11.15;;;;;;;;;;4996239;28;20037;-75
2022/01/13 13:43:56;;;;;;;24.83;12.32;;;;;;;;;;4997228;28;20048;-75
2022/01/13 13:46:22;;;;;;;28.73;13.20;;;;;;;;;;4996906;28;20049;-75
2022/01/13 13:48:48;;;;;;;18.63;10.13;;;;;;;;;;5003583;28;20101;-75
2022/01/13 13:51:15;;;;;;;23.35;11.85;;;;;;;;;;5002007;28;20116;-75
2022/01/13 13:54:20;;;;;;;20.08;10.43;;;;;;;;;;5007837;28;20161;-74
2022/01/13 13:56:52;;;;;;;19.70;10.80;;;;;;;;;;5007294;28;20018;-75
2022/01/13 13:59:36;;;;;;;20.38;10.40;;;;;;;;;;5006221;28;20130;-75
2022/01/13 14:02:05;;;;;;;22.38;11.13;;;;;;;;;;5007048;28;20738;-75
2022/01/13 14:04:51;;;;;;;20.52;9.63;;;;;;;;;;5006718;28;20030;-75
2022/01/13 14:07:35;;;;;;;19.52;10.43;;;;;;;;;;5006308;28;20476;-74
2022/01/13 14:10:08;;;;;;;20.52;10.75;;;;;;;;;;5006332;28;20037;-76
2022/01/13 14:12:38;;;;;;;21.63;10.00;;;;;;;;;;5003859;28;20033;-75
2022/01/13 14:15:24;;;;;;;22.30;10.57;;;;;;;;;;5006577;28;20025;-76
2022/01/13 14:17:55;;;;;;;25.05;11.10;;;;;;;;;;5003204;28;20441;-76
2022/01/13 14:20:26;;;;;;;20.35;9.93;;;;;;;;;;5005206;28;20033;-76
2022/01/13 14:22:57;;;;;;;21.58;10.82;;;;;;;;;;5006478;28;20105;-76
2022/01/13 14:25:28;;;;;;;21.48;11.20;;;;;;;;;;5003163;28;20026;-75
2022/01/13 14:27:56;;;;;;;22.80;11.20;;;;;;;;;;5004970;28;20026;-76
2022/01/13 14:30:29;;;;;;;21.38;10.68;;;;;;;;;;5001421;28;20038;-75
2022/01/13 14:33:18;;;;;;;19.55;10.80;;;;;;;;;;5005230;28;20034;-75
2022/01/13 14:35:56;;;;;;;20.67;10.43;;;;;;;;;;5005448;28;20018;-75
2022/01/13 14:38:21;;;;;;;20.75;10.55;;;;;;;;;;5003900;28;20022;-75
2022/01/13 14:40:48;;;;;;;20.48;11.20;;;;;;;;;;4994726;28;20545;-75
2022/01/13 14:43:19;;;;;;;21.13;10.65;;;;;;;;;;4989466;28;20030;-76
2022/01/13 14:45:47;;;;;;;21.73;10.70;;;;;;;;;;4986081;28;20042;-76
2022/01/13 14:48:13;;;;;;;22.70;10.55;;;;;;;;;;4985915;28;20064;-76
2022/01/13 14:50:39;;;;;;;22.13;11.52;;;;;;;;;;4999970;28;20585;-76
2022/01/13 14:53:04;;;;;;;21.88;10.27;;;;;;;;;;5006159;28;20046;-77
2022/01/13 14:55:29;;;;;;;24.70;11.35;;;;;;;;;;5006663;28;20025;-76
2022/01/13 14:57:55;;;;;;;22.98;12.10;;;;;;;;;;5005715;28;20113;-76
2022/01/13 15:00:21;;;;;;;21.83;10.73;;;;;;;;;;5005390;28;20100;-76
2022/01/13 15:02:48;;;;;;;22.88;11.38;;;;;;;;;;5006371;28;20032;-76
2022/01/13 15:05:15;;;;;;;24.27;11.25;;;;;;;;;;5005514;28;20045;-76
2022/01/13 15:07:40;;;;;;;21.88;11.20;;;;;;;;;;5006397;28;20026;-76
2022/01/13 15:10:06;;;;;;;23.00;11.30;;;;;;;;;;5005706;28;20298;-75